sensor_id;sensor_type;location;lat;lon;timestamp;pressure;altitude;pressure_sealevel;temperature;humidity
48364;BME280;34170;54.364;18.582;2023-10-31T00:01:22;98868.66;;;12.08;100.00
48364;BME280;34170;54.364;18.582;2023-10-31T00:03:50;98872.38;;;12.07;100.00
48364;BME280;34170;54.364;18.582;2023-10-31T00:06:18;98868.66;;;12.08;100.00
48364;BME280;34170;54.364;18.582;2023-10-31T00:08:45;98867.69;;;12.31;100.00
48364;BME280;34170;54.364;18.582;2023-10-31T00:11:13;98869.78;;;12.14;100.00
48364;BME280;34170;54.364;18.582;2023-10-31T00:13:41;98877.75;;;12.07;100.00
48364;BME280;34170;54.364;18.582;2023-10-31T00:16:09;98876.59;;;11.80;100.00
48364;BME280;34170;54.364;18.582;2023-10-31T00:18:37;98876.97;;;11.77;100.00
48364;BME280;34170;54.364;18.582;2023-10-31T00:21:05;98865.84;;;11.50;100.00
48364;BME280;34170;54.364;18.582;2023-10-31T00:23:32;98853.41;;;11.49;100.00
48364;BME280;34170;54.364;18.582;2023-10-31T00:26:00;98845.69;;;11.46;100.00
48364;BME280;34170;54.364;18.582;2023-10-31T00:28:27;98845.31;;;11.49;100.00
48364;BME280;34170;54.364;18.582;2023-10-31T00:30:55;98836.13;;;11.43;100.00
48364;BME280;34170;54.364;18.582;2023-10-31T00:33:23;98843.00;;;11.16;100.00
48364;BME280;34170;54.364;18.582;2023-10-31T00:35:50;98834.00;;;11.39;100.00
48364;BME280;34170;54.364;18.582;2023-10-31T00:38:18;98832.19;;;11.76;100.00
48364;BME280;34170;54.364;18.582;2023-10-31T00:40:46;98827.09;;;11.81;100.00
48364;BME280;34170;54.364;18.582;2023-10-31T00:43:13;98825.91;;;11.39;100.00
48364;BME280;34170;54.364;18.582;2023-10-31T00:45:41;98823.03;;;11.40;100.00
48364;BME280;34170;54.364;18.582;2023-10-31T00:48:08;98817.56;;;11.34;100.00
48364;BME280;34170;54.364;18.582;2023-10-31T00:50:36;98813.56;;;11.59;100.00
48364;BME280;34170;54.364;18.582;2023-10-31T00:53:04;98810.59;;;11.54;100.00
48364;BME280;34170;54.364;18.582;2023-10-31T00:55:31;98795.50;;;11.75;100.00
48364;BME280;34170;54.364;18.582;2023-10-31T00:57:59;98797.34;;;11.89;100.00
48364;BME280;34170;54.364;18.582;2023-10-31T01:00:28;98795.91;;;11.72;100.00
48364;BME280;34170;54.364;18.582;2023-10-31T01:02:55;98783.50;;;11.41;100.00
48364;BME280;34170;54.364;18.582;2023-10-31T01:05:23;98787.56;;;11.67;100.00
48364;BME280;34170;54.364;18.582;2023-10-31T01:07:51;98785.66;;;11.82;100.00
48364;BME280;34170;54.364;18.582;2023-10-31T01:10:19;98788.28;;;11.90;100.00
48364;BME280;34170;54.364;18.582;2023-10-31T01:12:47;98777.50;;;11.90;100.00
48364;BME280;34170;54.364;18.582;2023-10-31T01:15:14;98773.00;;;11.97;100.00
48364;BME280;34170;54.364;18.582;2023-10-31T01:17:42;98760.84;;;11.87;100.00
48364;BME280;34170;54.364;18.582;2023-10-31T01:20:10;98754.00;;;11.84;100.00
48364;BME280;34170;54.364;18.582;2023-10-31T01:22:38;98756.84;;;11.46;100.00
48364;BME280;34170;54.364;18.582;2023-10-31T01:25:06;98747.22;;;11.37;100.00
48364;BME280;34170;54.364;18.582;2023-10-31T01:27:34;98748.75;;;11.10;100.00
48364;BME280;34170;54.364;18.582;2023-10-31T01:30:01;98736.59;;;10.99;100.00
48364;BME280;34170;54.364;18.582;2023-10-31T01:32:29;98732.47;;;11.33;100.00
48364;BME280;34170;54.364;18.582;2023-10-31T01:34:57;98737.06;;;10.87;100.00
48364;BME280;34170;54.364;18.582;2023-10-31T01:37:24;98737.41;;;10.99;100.00
48364;BME280;34170;54.364;18.582;2023-10-31T01:39:53;98732.88;;;10.85;100.00
48364;BME280;34170;54.364;18.582;2023-10-31T01:42:21;98731.19;;;10.69;100.00
48364;BME280;34170;54.364;18.582;2023-10-31T01:44:48;98731.13;;;10.77;100.00
48364;BME280;34170;54.364;18.582;2023-10-31T01:47:17;98724.22;;;10.75;100.00
48364;BME280;34170;54.364;18.582;2023-10-31T01:49:45;98716.63;;;10.63;100.00
48364;BME280;34170;54.364;18.582;2023-10-31T01:52:12;98710.72;;;10.68;100.00
48364;BME280;34170;54.364;18.582;2023-10-31T01:54:40;98708.78;;;10.77;100.00
48364;BME280;34170;54.364;18.582;2023-10-31T01:57:08;98689.84;;;10.70;100.00
48364;BME280;34170;54.364;18.582;2023-10-31T01:59:36;98675.44;;;10.33;100.00
48364;BME280;34170;54.364;18.582;2023-10-31T02:02:05;98668.69;;;10.37;100.00
48364;BME280;34170;54.364;18.582;2023-10-31T02:04:33;98667.38;;;10.33;100.00
48364;BME280;34170;54.364;18.582;2023-10-31T02:07:01;98668.75;;;10.29;100.00
48364;BME280;34170;54.364;18.582;2023-10-31T02:09:29;98645.91;;;10.10;100.00
48364;BME280;34170;54.364;18.582;2023-10-31T02:11:57;98642.56;;;10.31;100.00
48364;BME280;34170;54.364;18.582;2023-10-31T02:14:25;98640.91;;;10.45;100.00
48364;BME280;34170;54.364;18.582;2023-10-31T02:16:53;98632.56;;;10.55;100.00
48364;BME280;34170;54.364;18.582;2023-10-31T02:19:21;98623.75;;;10.31;100.00
48364;BME280;34170;54.364;18.582;2023-10-31T02:21:49;98624.81;;;10.22;100.00
48364;BME280;34170;54.364;18.582;2023-10-31T02:24:17;98621.09;;;10.23;100.00
48364;BME280;34170;54.364;18.582;2023-10-31T02:26:44;98613.44;;;10.20;100.00
48364;BME280;34170;54.364;18.582;2023-10-31T02:29:12;98617.78;;;10.21;100.00
48364;BME280;34170;54.364;18.582;2023-10-31T02:31:40;98605.50;;;10.41;100.00
48364;BME280;34170;54.364;18.582;2023-10-31T02:34:08;98603.81;;;10.40;100.00
48364;BME280;34170;54.364;18.582;2023-10-31T02:36:35;98597.63;;;10.40;100.00
48364;BME280;34170;54.364;18.582;2023-10-31T02:39:03;98583.84;;;10.43;100.00
48364;BME280;34170;54.364;18.582;2023-10-31T02:41:30;98582.59;;;10.60;100.00
48364;BME280;34170;54.364;18.582;2023-10-31T02:43:58;98580.13;;;10.59;100.00
48364;BME280;34170;54.364;18.582;2023-10-31T02:46:26;98577.84;;;10.77;100.00
48364;BME280;34170;54.364;18.582;2023-10-31T02:48:54;98575.03;;;10.85;100.00
48364;BME280;34170;54.364;18.582;2023-10-31T02:51:21;98569.16;;;10.75;100.00
48364;BME280;34170;54.364;18.582;2023-10-31T02:53:49;98557.03;;;10.64;100.00
48364;BME280;34170;54.364;18.582;2023-10-31T02:56:16;98551.84;;;10.63;100.00
48364;BME280;34170;54.364;18.582;2023-10-31T02:58:44;98538.94;;;10.73;100.00
48364;BME280;34170;54.364;18.582;2023-10-31T03:01:12;98537.47;;;10.92;100.00
48364;BME280;34170;54.364;18.582;2023-10-31T03:03:40;98531.59;;;11.03;100.00
48364;BME280;34170;54.364;18.582;2023-10-31T03:06:08;98529.53;;;10.84;100.00
48364;BME280;34170;54.364;18.582;2023-10-31T03:08:35;98518.47;;;10.94;100.00
48364;BME280;34170;54.364;18.582;2023-10-31T03:11:03;98514.69;;;10.88;100.00
48364;BME280;34170;54.364;18.582;2023-10-31T03:13:31;98512.38;;;11.06;100.00
48364;BME280;34170;54.364;18.582;2023-10-31T03:15:58;98512.00;;;11.10;100.00
48364;BME280;34170;54.364;18.582;2023-10-31T03:18:26;98502.47;;;11.07;100.00
48364;BME280;34170;54.364;18.582;2023-10-31T03:20:53;98499.56;;;11.09;100.00
48364;BME280;34170;54.364;18.582;2023-10-31T03:23:21;98493.38;;;11.08;100.00
48364;BME280;34170;54.364;18.582;2023-10-31T03:25:49;98485.19;;;11.16;100.00
48364;BME280;34170;54.364;18.582;2023-10-31T03:28:20;98476.69;;;11.19;100.00
48364;BME280;34170;54.364;18.582;2023-10-31T03:30:50;98464.22;;;10.90;100.00
48364;BME280;34170;54.364;18.582;2023-10-31T03:33:18;98462.78;;;11.16;100.00
48364;BME280;34170;54.364;18.582;2023-10-31T03:35:46;98452.50;;;10.98;100.00
48364;BME280;34170;54.364;18.582;2023-10-31T03:38:14;98436.09;;;10.71;100.00
48364;BME280;34170;54.364;18.582;2023-10-31T03:40:41;98443.97;;;10.94;100.00
48364;BME280;34170;54.364;18.582;2023-10-31T03:43:12;98423.31;;;10.52;100.00
48364;BME280;34170;54.364;18.582;2023-10-31T03:45:40;98421.56;;;10.44;100.00
48364;BME280;34170;54.364;18.582;2023-10-31T03:48:08;98416.38;;;10.64;100.00
48364;BME280;34170;54.364;18.582;2023-10-31T03:50:36;98410.78;;;10.80;100.00
48364;BME280;34170;54.364;18.582;2023-10-31T03:53:04;98407.94;;;10.88;100.00
48364;BME280;34170;54.364;18.582;2023-10-31T03:55:31;98395.53;;;10.66;100.00
48364;BME280;34170;54.364;18.582;2023-10-31T03:57:59;98395.22;;;10.54;100.00
48364;BME280;34170;54.364;18.582;2023-10-31T04:00:26;98402.00;;;10.72;100.00
48364;BME280;34170;54.364;18.582;2023-10-31T04:02:55;98389.38;;;10.72;100.00
48364;BME280;34170;54.364;18.582;2023-10-31T04:05:23;98379.91;;;10.55;100.00
48364;BME280;34170;54.364;18.582;2023-10-31T04:07:51;98370.47;;;10.59;100.00
48364;BME280;34170;54.364;18.582;2023-10-31T04:10:19;98371.91;;;10.83;100.00
48364;BME280;34170;54.364;18.582;2023-10-31T04:12:47;98359.38;;;10.68;100.00
48364;BME280;34170;54.364;18.582;2023-10-31T04:15:15;98358.63;;;11.03;100.00
48364;BME280;34170;54.364;18.582;2023-10-31T04:17:42;98356.13;;;10.73;100.00
48364;BME280;34170;54.364;18.582;2023-10-31T04:20:10;98345.81;;;10.77;100.00
48364;BME280;34170;54.364;18.582;2023-10-31T04:22:38;98341.75;;;10.87;100.00
48364;BME280;34170;54.364;18.582;2023-10-31T04:25:06;98331.19;;;10.86;100.00
48364;BME280;34170;54.364;18.582;2023-10-31T04:27:33;98316.31;;;11.18;100.00
48364;BME280;34170;54.364;18.582;2023-10-31T04:30:01;98315.81;;;11.08;100.00
48364;BME280;34170;54.364;18.582;2023-10-31T04:32:29;98315.81;;;11.08;100.00
48364;BME280;34170;54.364;18.582;2023-10-31T04:34:56;98303.22;;;10.80;100.00
48364;BME280;34170;54.364;18.582;2023-10-31T04:37:25;98306.19;;;10.92;100.00
48364;BME280;34170;54.364;18.582;2023-10-31T04:39:53;98295.97;;;11.09;100.00
48364;BME280;34170;54.364;18.582;2023-10-31T04:42:21;98292.25;;;11.10;100.00
48364;BME280;34170;54.364;18.582;2023-10-31T04:44:49;98293.03;;;11.04;100.00
48364;BME280;34170;54.364;18.582;2023-10-31T04:47:17;98283.84;;;10.92;100.00
48364;BME280;34170;54.364;18.582;2023-10-31T04:49:45;98285.22;;;11.09;100.00
48364;BME280;34170;54.364;18.582;2023-10-31T04:52:13;98271.97;;;11.07;100.00
48364;BME280;34170;54.364;18.582;2023-10-31T04:54:40;98271.91;;;11.01;100.00
48364;BME280;34170;54.364;18.582;2023-10-31T04:57:08;98271.88;;;10.94;100.00
48364;BME280;34170;54.364;18.582;2023-10-31T04:59:35;98279.16;;;11.00;100.00
48364;BME280;34170;54.364;18.582;2023-10-31T05:02:03;98272.00;;;11.14;100.00
48364;BME280;34170;54.364;18.582;2023-10-31T05:04:31;98273.59;;;11.43;100.00
48364;BME280;34170;54.364;18.582;2023-10-31T05:06:59;98269.22;;;11.36;100.00
48364;BME280;34170;54.364;18.582;2023-10-31T05:09:26;98253.25;;;11.28;100.00
48364;BME280;34170;54.364;18.582;2023-10-31T05:11:54;98244.69;;;11.17;100.00
48364;BME280;34170;54.364;18.582;2023-10-31T05:14:22;98236.00;;;11.15;100.00
48364;BME280;34170;54.364;18.582;2023-10-31T05:16:50;98223.34;;;11.09;100.00
48364;BME280;34170;54.364;18.582;2023-10-31T05:19:17;98214.13;;;11.32;100.00
48364;BME280;34170;54.364;18.582;2023-10-31T05:21:45;98206.47;;;11.29;100.00
48364;BME280;34170;54.364;18.582;2023-10-31T05:24:12;98204.59;;;11.29;100.00
48364;BME280;34170;54.364;18.582;2023-10-31T05:26:40;98196.25;;;11.11;100.00
48364;BME280;34170;54.364;18.582;2023-10-31T05:29:13;98203.81;;;11.42;100.00
48364;BME280;34170;54.364;18.582;2023-10-31T05:31:41;98205.44;;;11.30;100.00
48364;BME280;34170;54.364;18.582;2023-10-31T05:34:09;98204.16;;;11.19;100.00
48364;BME280;34170;54.364;18.582;2023-10-31T05:36:36;98198.94;;;11.59;100.00
48364;BME280;34170;54.364;18.582;2023-10-31T05:39:04;98197.63;;;11.41;100.00
48364;BME280;34170;54.364;18.582;2023-10-31T05:41:34;98197.50;;;11.70;100.00
48364;BME280;34170;54.364;18.582;2023-10-31T05:44:02;98188.97;;;11.59;100.00
48364;BME280;34170;54.364;18.582;2023-10-31T05:46:30;98186.41;;;11.31;100.00
48364;BME280;34170;54.364;18.582;2023-10-31T05:48:57;98173.75;;;11.25;100.00
48364;BME280;34170;54.364;18.582;2023-10-31T05:51:25;98171.44;;;11.15;100.00
48364;BME280;34170;54.364;18.582;2023-10-31T05:53:53;98167.00;;;11.49;100.00
48364;BME280;34170;54.364;18.582;2023-10-31T05:56:20;98162.47;;;11.56;100.00
48364;BME280;34170;54.364;18.582;2023-10-31T05:58:48;98155.38;;;11.42;100.00
48364;BME280;34170;54.364;18.582;2023-10-31T06:01:15;98146.47;;;11.48;100.00
48364;BME280;34170;54.364;18.582;2023-10-31T06:03:43;98155.84;;;11.52;100.00
48364;BME280;34170;54.364;18.582;2023-10-31T06:06:12;98135.94;;;11.40;100.00
48364;BME280;34170;54.364;18.582;2023-10-31T06:08:41;98129.69;;;11.33;100.00
48364;BME280;34170;54.364;18.582;2023-10-31T06:11:09;98131.13;;;11.35;100.00
48364;BME280;34170;54.364;18.582;2023-10-31T06:13:40;98116.41;;;11.18;100.00
48364;BME280;34170;54.364;18.582;2023-10-31T06:16:07;98118.88;;;11.13;100.00
48364;BME280;34170;54.364;18.582;2023-10-31T06:18:35;98107.69;;;11.16;100.00
48364;BME280;34170;54.364;18.582;2023-10-31T06:21:03;98112.22;;;11.02;100.00
48364;BME280;34170;54.364;18.582;2023-10-31T06:23:30;98095.84;;;10.97;100.00
48364;BME280;34170;54.364;18.582;2023-10-31T06:25:59;98098.66;;;11.37;100.00
48364;BME280;34170;54.364;18.582;2023-10-31T06:28:26;98087.44;;;11.26;100.00
48364;BME280;34170;54.364;18.582;2023-10-31T06:30:54;98091.19;;;11.39;100.00
48364;BME280;34170;54.364;18.582;2023-10-31T06:33:22;98081.84;;;11.15;100.00
48364;BME280;34170;54.364;18.582;2023-10-31T06:35:50;98079.19;;;11.21;100.00
48364;BME280;34170;54.364;18.582;2023-10-31T06:38:19;98071.09;;;11.21;100.00
48364;BME280;34170;54.364;18.582;2023-10-31T06:40:47;98074.88;;;11.47;100.00
48364;BME280;34170;54.364;18.582;2023-10-31T06:43:15;98061.78;;;11.37;100.00
48364;BME280;34170;54.364;18.582;2023-10-31T06:45:43;98056.13;;;10.99;100.00
48364;BME280;34170;54.364;18.582;2023-10-31T06:48:10;98050.19;;;11.17;100.00
48364;BME280;34170;54.364;18.582;2023-10-31T06:50:38;98041.34;;;10.75;100.00
48364;BME280;34170;54.364;18.582;2023-10-31T06:53:05;98050.31;;;10.88;100.00
48364;BME280;34170;54.364;18.582;2023-10-31T06:55:34;98040.78;;;10.86;100.00
48364;BME280;34170;54.364;18.582;2023-10-31T06:58:04;98035.22;;;10.94;100.00
48364;BME280;34170;54.364;18.582;2023-10-31T07:00:32;98021.78;;;11.01;100.00
48364;BME280;34170;54.364;18.582;2023-10-31T07:02:59;98036.13;;;11.35;100.00
48364;BME280;34170;54.364;18.582;2023-10-31T07:05:32;98031.94;;;11.12;100.00
48364;BME280;34170;54.364;18.582;2023-10-31T07:07:59;98030.75;;;11.35;100.00
48364;BME280;34170;54.364;18.582;2023-10-31T07:10:27;98022.03;;;11.26;100.00
48364;BME280;34170;54.364;18.582;2023-10-31T07:12:55;98024.31;;;11.22;100.00
48364;BME280;34170;54.364;18.582;2023-10-31T07:15:22;98022.88;;;11.33;100.00
48364;BME280;34170;54.364;18.582;2023-10-31T07:17:50;98026.63;;;11.45;100.00
48364;BME280;34170;54.364;18.582;2023-10-31T07:20:18;98018.72;;;11.17;100.00
48364;BME280;34170;54.364;18.582;2023-10-31T07:22:45;98011.31;;;11.59;100.00
48364;BME280;34170;54.364;18.582;2023-10-31T07:25:13;98012.75;;;11.29;100.00
48364;BME280;34170;54.364;18.582;2023-10-31T07:27:41;98016.88;;;11.24;100.00
48364;BME280;34170;54.364;18.582;2023-10-31T07:30:08;98011.50;;;11.31;100.00
48364;BME280;34170;54.364;18.582;2023-10-31T07:32:36;98012.09;;;11.26;100.00
48364;BME280;34170;54.364;18.582;2023-10-31T07:35:05;98003.22;;;11.46;100.00
48364;BME280;34170;54.364;18.582;2023-10-31T07:37:32;97997.03;;;11.59;100.00
48364;BME280;34170;54.364;18.582;2023-10-31T07:40:03;97994.72;;;11.22;100.00
48364;BME280;34170;54.364;18.582;2023-10-31T07:42:31;97977.78;;;11.42;100.00
48364;BME280;34170;54.364;18.582;2023-10-31T07:44:59;97983.13;;;11.69;100.00
48364;BME280;34170;54.364;18.582;2023-10-31T07:47:26;97991.84;;;11.37;100.00
48364;BME280;34170;54.364;18.582;2023-10-31T07:49:54;97979.44;;;11.43;100.00
48364;BME280;34170;54.364;18.582;2023-10-31T07:52:21;97970.06;;;11.86;100.00
48364;BME280;34170;54.364;18.582;2023-10-31T07:54:49;97973.19;;;11.76;100.00
48364;BME280;34170;54.364;18.582;2023-10-31T07:57:17;97972.78;;;11.79;100.00
48364;BME280;34170;54.364;18.582;2023-10-31T07:59:44;97972.34;;;11.82;100.00
48364;BME280;34170;54.364;18.582;2023-10-31T08:02:12;97972.38;;;11.55;100.00
48364;BME280;34170;54.364;18.582;2023-10-31T08:04:40;97970.72;;;11.54;100.00
48364;BME280;34170;54.364;18.582;2023-10-31T08:07:08;97970.31;;;11.57;100.00
48364;BME280;34170;54.364;18.582;2023-10-31T08:09:35;97954.59;;;11.61;100.00
48364;BME280;34170;54.364;18.582;2023-10-31T08:12:03;97964.72;;;11.52;100.00
48364;BME280;34170;54.364;18.582;2023-10-31T08:14:31;97939.84;;;11.77;100.00
48364;BME280;34170;54.364;18.582;2023-10-31T08:16:58;97936.31;;;11.76;100.00
48364;BME280;34170;54.364;18.582;2023-10-31T08:19:26;97942.56;;;11.63;100.00
48364;BME280;34170;54.364;18.582;2023-10-31T08:21:53;97926.00;;;11.73;100.00
48364;BME280;34170;54.364;18.582;2023-10-31T08:24:23;97926.41;;;11.77;100.00
48364;BME280;34170;54.364;18.582;2023-10-31T08:26:51;97914.97;;;11.75;100.00
48364;BME280;34170;54.364;18.582;2023-10-31T08:29:18;97920.38;;;11.75;100.00
48364;BME280;34170;54.364;18.582;2023-10-31T08:31:46;97906.28;;;11.86;100.00
48364;BME280;34170;54.364;18.582;2023-10-31T08:34:14;97898.22;;;11.73;100.00
48364;BME280;34170;54.364;18.582;2023-10-31T08:36:43;97892.88;;;11.59;100.00
48364;BME280;34170;54.364;18.582;2023-10-31T08:39:11;97903.81;;;11.91;100.00
48364;BME280;34170;54.364;18.582;2023-10-31T08:41:50;97899.84;;;11.94;100.00
48364;BME280;34170;54.364;18.582;2023-10-31T08:44:18;97882.53;;;11.56;100.00
48364;BME280;34170;54.364;18.582;2023-10-31T08:46:46;97890.28;;;11.98;100.00
48364;BME280;34170;54.364;18.582;2023-10-31T08:49:15;97887.84;;;11.76;100.00
48364;BME280;34170;54.364;18.582;2023-10-31T08:51:43;97893.63;;;11.80;100.00
48364;BME280;34170;54.364;18.582;2023-10-31T08:54:11;97883.09;;;11.92;100.00
48364;BME280;34170;54.364;18.582;2023-10-31T08:56:39;97877.47;;;11.93;100.00
48364;BME280;34170;54.364;18.582;2023-10-31T08:59:07;97881.97;;;12.13;100.00
48364;BME280;34170;54.364;18.582;2023-10-31T09:01:34;97883.56;;;12.27;100.00
48364;BME280;34170;54.364;18.582;2023-10-31T09:04:02;97879.09;;;12.01;100.00
48364;BME280;34170;54.364;18.582;2023-10-31T09:06:29;97869.50;;;12.18;100.00
48364;BME280;34170;54.364;18.582;2023-10-31T09:08:57;97867.03;;;12.17;100.00
48364;BME280;34170;54.364;18.582;2023-10-31T09:11:24;97868.31;;;12.08;100.00
48364;BME280;34170;54.364;18.582;2023-10-31T09:13:52;97863.03;;;12.26;100.00
48364;BME280;34170;54.364;18.582;2023-10-31T09:16:20;97863.53;;;12.48;100.00
48364;BME280;34170;54.364;18.582;2023-10-31T09:18:47;97870.59;;;12.43;100.00
48364;BME280;34170;54.364;18.582;2023-10-31T09:21:18;97863.31;;;12.11;100.00
48364;BME280;34170;54.364;18.582;2023-10-31T09:23:45;97869.03;;;12.28;100.00
48364;BME280;34170;54.364;18.582;2023-10-31T09:26:13;97868.31;;;12.78;100.00
48364;BME280;34170;54.364;18.582;2023-10-31T09:28:41;97870.88;;;12.34;100.00
48364;BME280;34170;54.364;18.582;2023-10-31T09:31:17;97862.81;;;12.66;100.00
48364;BME280;34170;54.364;18.582;2023-10-31T09:33:45;97844.25;;;12.76;100.00
48364;BME280;34170;54.364;18.582;2023-10-31T09:36:13;97849.28;;;12.98;100.00
48364;BME280;34170;54.364;18.582;2023-10-31T09:38:42;97851.28;;;13.09;100.00
48364;BME280;34170;54.364;18.582;2023-10-31T09:41:09;97844.81;;;13.10;100.00
48364;BME280;34170;54.364;18.582;2023-10-31T09:43:37;97839.00;;;12.88;100.00
48364;BME280;34170;54.364;18.582;2023-10-31T09:46:05;97848.66;;;12.96;100.00
48364;BME280;34170;54.364;18.582;2023-10-31T09:48:33;97843.28;;;12.96;100.00
48364;BME280;34170;54.364;18.582;2023-10-31T09:51:02;97829.06;;;13.07;100.00
48364;BME280;34170;54.364;18.582;2023-10-31T09:53:31;97832.56;;;13.14;100.00
48364;BME280;34170;54.364;18.582;2023-10-31T09:56:00;97834.13;;;13.47;100.00
48364;BME280;34170;54.364;18.582;2023-10-31T09:58:28;97833.63;;;13.32;100.00
48364;BME280;34170;54.364;18.582;2023-10-31T10:00:56;97835.09;;;13.09;100.00
48364;BME280;34170;54.364;18.582;2023-10-31T10:03:26;97834.47;;;13.07;100.00
48364;BME280;34170;54.364;18.582;2023-10-31T10:05:54;97829.19;;;12.94;100.00
48364;BME280;34170;54.364;18.582;2023-10-31T10:08:22;97836.63;;;13.24;100.00
48364;BME280;34170;54.364;18.582;2023-10-31T10:10:50;97835.91;;;13.35;100.00
48364;BME280;34170;54.364;18.582;2023-10-31T10:13:20;97835.69;;;13.11;100.00
48364;BME280;34170;54.364;18.582;2023-10-31T10:15:49;97817.97;;;12.97;100.00
48364;BME280;34170;54.364;18.582;2023-10-31T10:20:55;97827.22;;;13.33;100.00
48364;BME280;34170;54.364;18.582;2023-10-31T10:23:24;97836.50;;;13.37;100.00
48364;BME280;34170;54.364;18.582;2023-10-31T10:25:54;97823.63;;;13.14;100.00
48364;BME280;34170;54.364;18.582;2023-10-31T10:28:23;97821.97;;;13.57;100.00
48364;BME280;34170;54.364;18.582;2023-10-31T10:30:52;97832.84;;;13.25;100.00
48364;BME280;34170;54.364;18.582;2023-10-31T10:33:22;97827.97;;;13.40;100.00
48364;BME280;34170;54.364;18.582;2023-10-31T10:35:50;97812.47;;;13.54;100.00
48364;BME280;34170;54.364;18.582;2023-10-31T10:38:21;97814.03;;;13.62;100.00
48364;BME280;34170;54.364;18.582;2023-10-31T10:40:50;97837.56;;;13.36;100.00
48364;BME280;34170;54.364;18.582;2023-10-31T10:43:26;97827.09;;;13.65;100.00
48364;BME280;34170;54.364;18.582;2023-10-31T10:45:56;97804.84;;;14.00;100.00
48364;BME280;34170;54.364;18.582;2023-10-31T10:48:28;97804.84;;;14.00;100.00
48364;BME280;34170;54.364;18.582;2023-10-31T10:54:09;97826.88;;;14.87;100.00
48364;BME280;34170;54.364;18.582;2023-10-31T10:56:42;97823.34;;;14.87;100.00
48364;BME280;34170;54.364;18.582;2023-10-31T10:59:15;97818.78;;;14.99;100.00
48364;BME280;34170;54.364;18.582;2023-10-31T11:01:49;97818.78;;;15.11;100.00
48364;BME280;34170;54.364;18.582;2023-10-31T11:04:17;97826.09;;;15.11;100.00
48364;BME280;34170;54.364;18.582;2023-10-31T11:06:45;97823.31;;;14.75;100.00
48364;BME280;34170;54.364;18.582;2023-10-31T11:09:13;97838.19;;;14.84;100.00
48364;BME280;34170;54.364;18.582;2023-10-31T11:11:41;97829.22;;;14.72;100.00
48364;BME280;34170;54.364;18.582;2023-10-31T11:14:16;97812.72;;;14.62;100.00
48364;BME280;34170;54.364;18.582;2023-10-31T11:16:49;97815.84;;;15.01;100.00
48364;BME280;34170;54.364;18.582;2023-10-31T11:19:19;97798.31;;;15.15;100.00
48364;BME280;34170;54.364;18.582;2023-10-31T11:22:00;97804.19;;;15.48;100.00
48364;BME280;34170;54.364;18.582;2023-10-31T11:24:31;97798.78;;;15.48;100.00
48364;BME280;34170;54.364;18.582;2023-10-31T11:27:01;97798.66;;;15.31;100.00
48364;BME280;34170;54.364;18.582;2023-10-31T11:29:32;97809.13;;;15.27;100.00
48364;BME280;34170;54.364;18.582;2023-10-31T11:32:00;97814.31;;;15.29;100.00
48364;BME280;34170;54.364;18.582;2023-10-31T11:34:29;97820.31;;;15.31;100.00
48364;BME280;34170;54.364;18.582;2023-10-31T11:37:31;97823.50;;;15.16;100.00
48364;BME280;34170;54.364;18.582;2023-10-31T11:41:45;97823.84;;;15.07;100.00
48364;BME280;34170;54.364;18.582;2023-10-31T11:48:52;97836.44;;;15.37;100.00
48364;BME280;34170;54.364;18.582;2023-10-31T11:51:20;97823.97;;;15.24;100.00
48364;BME280;34170;54.364;18.582;2023-10-31T11:53:48;97827.13;;;15.45;100.00
48364;BME280;34170;54.364;18.582;2023-10-31T11:56:21;97824.66;;;15.55;100.00
48364;BME280;34170;54.364;18.582;2023-10-31T11:58:56;97837.13;;;15.68;100.00
48364;BME280;34170;54.364;18.582;2023-10-31T12:01:23;97831.72;;;15.44;100.00
48364;BME280;34170;54.364;18.582;2023-10-31T12:03:51;97829.41;;;15.36;100.00
48364;BME280;34170;54.364;18.582;2023-10-31T12:06:19;97824.69;;;15.32;100.00
48364;BME280;34170;54.364;18.582;2023-10-31T12:08:49;97843.97;;;15.35;100.00
48364;BME280;34170;54.364;18.582;2023-10-31T12:11:19;97849.88;;;15.32;100.00
48364;BME280;34170;54.364;18.582;2023-10-31T12:13:57;97852.44;;;15.27;100.00
48364;BME280;34170;54.364;18.582;2023-10-31T12:16:30;97841.03;;;15.13;100.00
48364;BME280;34170;54.364;18.582;2023-10-31T12:19:03;97858.78;;;14.97;100.00
48364;BME280;34170;54.364;18.582;2023-10-31T12:21:41;97853.44;;;14.79;100.00
48364;BME280;34170;54.364;18.582;2023-10-31T12:24:12;97868.53;;;14.86;100.00
48364;BME280;34170;54.364;18.582;2023-10-31T12:26:40;97886.75;;;14.79;100.00
48364;BME280;34170;54.364;18.582;2023-10-31T12:31:48;97878.41;;;14.81;100.00
48364;BME280;34170;54.364;18.582;2023-10-31T12:34:17;97883.94;;;14.86;100.00
48364;BME280;34170;54.364;18.582;2023-10-31T12:36:51;97895.38;;;15.00;100.00
48364;BME280;34170;54.364;18.582;2023-10-31T12:39:25;97890.03;;;14.81;100.00
48364;BME280;34170;54.364;18.582;2023-10-31T12:41:53;97916.06;;;14.94;100.00
48364;BME280;34170;54.364;18.582;2023-10-31T12:44:26;97907.38;;;14.92;100.00
48364;BME280;34170;54.364;18.582;2023-10-31T12:46:55;97929.84;;;14.93;100.00
48364;BME280;34170;54.364;18.582;2023-10-31T12:49:24;97927.22;;;14.86;100.00
48364;BME280;34170;54.364;18.582;2023-10-31T12:52:03;97924.84;;;14.78;100.00
48364;BME280;34170;54.364;18.582;2023-10-31T12:54:33;97918.72;;;14.71;100.00
48364;BME280;34170;54.364;18.582;2023-10-31T12:57:04;97953.69;;;14.84;100.00
48364;BME280;34170;54.364;18.582;2023-10-31T12:59:33;97957.34;;;14.90;100.00
48364;BME280;34170;54.364;18.582;2023-10-31T13:02:01;97942.22;;;14.70;100.00